Time;durP1;ratioP1;P1;durP2;ratioP2;P2;SDS_P1;SDS_P2;PMS_P1;PMS_P2;Temp;Humidity;BMP_temperature;BMP_pressure;BME280_temperature;BME280_humidity;BME280_pressure;Samples;Min_cycle;Max_cycle;Signal;HPM_P1;HPM_P2
2021/11/16 00:01:44;;;;;;;29.90;20.27;;;10.20;99.90;;;;;;5050566;28;20025;-82
2021/11/16 00:04:10;;;;;;;32.25;20.75;;;10.10;99.90;;;;;;5050950;28;20025;-83
2021/11/16 00:06:37;;;;;;;34.75;21.15;;;10.10;99.90;;;;;;5051038;28;20025;-82
2021/11/16 00:09:05;;;;;;;32.92;21.35;;;10.00;99.90;;;;;;5050986;28;20436;-82
2021/11/16 00:11:32;;;;;;;35.17;22.55;;;10.10;99.90;;;;;;5051327;28;20045;-83
2021/11/16 00:13:59;;;;;;;32.17;20.98;;;10.10;99.90;;;;;;5050729;28;20059;-82
2021/11/16 00:16:28;;;;;;;33.60;21.80;;;10.10;99.90;;;;;;5050370;28;20536;-83
2021/11/16 00:18:59;;;;;;;32.28;22.05;;;10.10;99.90;;;;;;5050828;28;20029;-82
2021/11/16 00:21:26;;;;;;;30.05;20.75;;;10.10;99.90;;;;;;5050710;28;20060;-83
2021/11/16 00:23:56;;;;;;;39.00;21.48;;;10.20;99.90;;;;;;5050731;28;20021;-82
2021/11/16 00:26:23;;;;;;;32.20;20.40;;;10.20;99.90;;;;;;5050656;28;20075;-82
2021/11/16 00:28:48;;;;;;;35.60;22.30;;;10.20;99.90;;;;;;5032763;28;20047;-83
2021/11/16 00:31:14;;;;;;;35.88;22.20;;;10.20;99.90;;;;;;5050272;28;20025;-83
2021/11/16 00:33:41;;;;;;;30.98;21.63;;;10.20;99.90;;;;;;5050657;28;20036;-82
2021/11/16 00:36:07;;;;;;;32.95;21.83;;;10.20;99.90;;;;;;5050608;28;20029;-82
2021/11/16 00:38:34;;;;;;;37.65;21.73;;;10.20;99.90;;;;;;5050327;28;20033;-83
2021/11/16 00:41:00;;;;;;;35.50;21.83;;;10.30;99.90;;;;;;5050298;28;20264;-83
2021/11/16 00:43:28;;;;;;;34.33;22.50;;;10.30;99.90;;;;;;5049003;28;20260;-83
2021/11/16 00:45:53;;;;;;;31.58;22.05;;;10.30;99.90;;;;;;5050322;28;20045;-82
2021/11/16 00:48:25;;;;;;;32.90;22.02;;;10.20;99.90;;;;;;5048580;28;20041;-82
2021/11/16 00:50:56;;;;;;;38.92;22.30;;;10.20;99.90;;;;;;5050316;28;20021;-82
2021/11/16 00:53:23;;;;;;;37.13;21.90;;;10.20;99.90;;;;;;5032302;28;20176;-83
2021/11/16 00:55:49;;;;;;;37.03;24.00;;;10.20;99.90;;;;;;5065411;28;20029;-83
2021/11/16 00:58:15;;;;;;;36.92;23.48;;;10.20;99.90;;;;;;5032135;28;20047;-83
2021/11/16 01:00:42;;;;;;;36.00;22.23;;;10.20;99.90;;;;;;5048677;28;20032;-82
2021/11/16 01:03:12;;;;;;;33.85;22.35;;;10.20;99.90;;;;;;5050042;28;20371;-83
2021/11/16 01:05:39;;;;;;;32.80;22.40;;;10.20;99.90;;;;;;5050058;28;20025;-82
2021/11/16 01:08:06;;;;;;;35.33;22.50;;;10.20;99.90;;;;;;5049828;28;20036;-82
2021/11/16 01:10:33;;;;;;;31.95;21.48;;;10.20;99.90;;;;;;5049926;28;20056;-82
2021/11/16 01:12:59;;;;;;;35.25;22.92;;;10.20;99.90;;;;;;5049767;28;20024;-83
2021/11/16 01:15:24;;;;;;;34.30;21.70;;;10.20;99.90;;;;;;5049775;28;20493;-82
2021/11/16 01:17:51;;;;;;;36.88;23.00;;;10.20;99.90;;;;;;5049559;28;20017;-83
2021/11/16 01:20:19;;;;;;;32.40;21.27;;;10.20;99.90;;;;;;5049812;28;20060;-82
2021/11/16 01:22:47;;;;;;;34.97;22.08;;;10.20;99.90;;;;;;5049875;28;20028;-82
2021/11/16 01:25:14;;;;;;;36.58;22.42;;;10.20;99.90;;;;;;5049867;28;20467;-82
2021/11/16 01:27:40;;;;;;;36.03;22.13;;;10.20;99.90;;;;;;5051723;28;20033;-83
2021/11/16 01:30:10;;;;;;;36.90;22.60;;;10.20;99.90;;;;;;5053930;28;20025;-82
2021/11/16 01:35:05;;;;;;;37.45;22.30;;;10.20;99.90;;;;;;5053780;28;20104;-82
2021/11/16 01:37:32;;;;;;;34.63;22.48;;;10.20;99.90;;;;;;5053763;28;20520;-82
2021/11/16 01:39:57;;;;;;;35.35;22.25;;;10.20;99.90;;;;;;5053867;28;20152;-83
2021/11/16 01:42:23;;;;;;;37.53;23.05;;;10.20;99.90;;;;;;5053772;28;20179;-82
2021/11/16 01:44:51;;;;;;;36.95;23.40;;;10.20;99.90;;;;;;5053418;28;20124;-82
2021/11/16 01:47:17;;;;;;;33.65;22.38;;;10.30;99.90;;;;;;5053161;28;20624;-82
2021/11/16 01:49:44;;;;;;;35.58;23.63;;;10.20;99.90;;;;;;5035418;28;20086;-82
2021/11/16 01:52:10;;;;;;;35.33;22.73;;;10.20;99.90;;;;;;5053545;28;20214;-82
2021/11/16 01:54:36;;;;;;;37.70;23.40;;;10.20;99.90;;;;;;5053650;28;20573;-82
2021/11/16 01:57:04;;;;;;;34.00;21.77;;;10.20;99.90;;;;;;5053435;28;20112;-83
2021/11/16 01:59:30;;;;;;;33.10;21.50;;;10.20;99.90;;;;;;5053470;28;20044;-83
2021/11/16 02:01:57;;;;;;;39.40;24.42;;;10.30;99.90;;;;;;5053234;28;20025;-83
2021/11/16 02:04:23;;;;;;;34.63;22.85;;;10.30;99.90;;;;;;5053221;28;20021;-82
2021/11/16 02:06:49;;;;;;;38.30;24.00;;;10.30;99.90;;;;;;5053308;28;20021;-82
2021/11/16 02:09:16;;;;;;;34.75;22.20;;;10.20;99.90;;;;;;5053036;28;20162;-82
2021/11/16 02:11:43;;;;;;;34.65;23.13;;;10.20;99.90;;;;;;5053187;28;20500;-82
2021/11/16 02:14:16;;;;;;;35.42;22.02;;;10.20;99.90;;;;;;5053038;28;20021;-83
2021/11/16 02:16:43;;;;;;;35.85;22.85;;;10.20;99.90;;;;;;5052789;28;20021;-82
2021/11/16 02:19:12;;;;;;;35.42;22.55;;;10.20;99.90;;;;;;5053277;28;20025;-83
2021/11/16 02:21:39;;;;;;;36.78;23.10;;;10.20;99.90;;;;;;5053024;28;20032;-83
2021/11/16 02:24:07;;;;;;;37.58;23.80;;;10.10;99.90;;;;;;5053040;28;20497;-82
2021/11/16 02:26:34;;;;;;;37.17;23.95;;;10.10;99.90;;;;;;5053139;28;20020;-83
2021/11/16 02:29:00;;;;;;;34.78;22.35;;;10.10;99.90;;;;;;5052792;28;20238;-83
2021/11/16 02:31:26;;;;;;;35.45;23.10;;;10.10;99.90;;;;;;5052791;28;20021;-82
2021/11/16 02:33:52;;;;;;;34.90;23.73;;;10.20;99.90;;;;;;5052815;28;20103;-82
2021/11/16 02:36:20;;;;;;;34.80;22.42;;;10.20;99.90;;;;;;5052680;28;20029;-83
2021/11/16 02:38:46;;;;;;;32.55;22.17;;;10.20;99.90;;;;;;5052667;28;20041;-82
2021/11/16 02:41:13;;;;;;;35.92;24.08;;;10.30;99.90;;;;;;5052720;28;20044;-82
2021/11/16 02:43:40;;;;;;;36.65;22.58;;;10.20;99.90;;;;;;5052463;28;20148;-82
2021/11/16 02:46:06;;;;;;;34.83;23.25;;;10.20;99.90;;;;;;5051808;28;20045;-82
2021/11/16 02:48:33;;;;;;;34.85;22.13;;;10.20;99.90;;;;;;5052414;28;20033;-82
2021/11/16 02:51:10;;;;;;;34.05;22.55;;;10.30;99.90;;;;;;5067684;28;20025;-82
2021/11/16 02:53:38;;;;;;;38.30;24.13;;;10.20;99.90;;;;;;5052560;28;20029;-82
2021/11/16 02:56:05;;;;;;;35.97;23.58;;;10.20;99.90;;;;;;5052466;28;20259;-82
2021/11/16 02:58:31;;;;;;;38.97;24.45;;;10.20;99.90;;;;;;5052221;28;20029;-83
2021/11/16 03:01:03;;;;;;;35.33;23.35;;;10.30;99.90;;;;;;5051781;28;20025;-82
2021/11/16 03:03:29;;;;;;;35.05;22.20;;;10.30;99.90;;;;;;5052316;28;20021;-83
2021/11/16 03:05:54;;;;;;;38.08;24.70;;;10.30;99.90;;;;;;5052280;28;20033;-82
2021/11/16 03:08:25;;;;;;;35.28;23.65;;;10.20;99.90;;;;;;5051968;28;20040;-82
2021/11/16 03:10:58;;;;;;;35.13;23.23;;;10.20;99.90;;;;;;5052108;28;20151;-82
2021/11/16 03:13:26;;;;;;;36.80;22.85;;;10.30;99.90;;;;;;5052046;28;20112;-82
2021/11/16 03:15:52;;;;;;;37.30;23.83;;;10.20;99.90;;;;;;5051869;28;20025;-82
2021/11/16 03:18:18;;;;;;;40.00;23.17;;;10.20;99.90;;;;;;5051532;28;20032;-82
2021/11/16 03:20:45;;;;;;;35.35;24.00;;;10.20;99.90;;;;;;5051830;28;20370;-82
2021/11/16 03:25:42;;;;;;;36.70;24.05;;;10.20;99.90;;;;;;5051748;28;20114;-83
2021/11/16 03:28:10;;;;;;;34.28;22.40;;;10.20;99.90;;;;;;5051583;28;20036;-82
2021/11/16 03:30:37;;;;;;;42.17;24.13;;;10.20;99.90;;;;;;5033695;28;20535;-82
2021/11/16 03:33:04;;;;;;;33.63;22.52;;;10.20;99.90;;;;;;5051523;28;20032;-82
2021/11/16 03:35:31;;;;;;;37.47;23.90;;;10.10;99.90;;;;;;5050214;28;20027;-82
2021/11/16 03:37:58;;;;;;;40.90;24.20;;;10.20;99.90;;;;;;5051496;28;20071;-82
2021/11/16 03:40:28;;;;;;;36.03;22.73;;;10.20;99.90;;;;;;5049997;28;20033;-82
2021/11/16 03:42:54;;;;;;;35.47;22.73;;;10.20;99.90;;;;;;5051386;28;20021;-82
2021/11/16 03:45:26;;;;;;;34.45;23.23;;;10.20;99.90;;;;;;5051182;28;20049;-83
2021/11/16 03:47:54;;;;;;;33.45;22.45;;;10.30;99.90;;;;;;5050951;28;20032;-82
2021/11/16 03:50:24;;;;;;;38.78;22.80;;;10.30;99.90;;;;;;5050761;28;20035;-82
2021/11/16 03:52:54;;;;;;;34.42;22.65;;;10.30;99.90;;;;;;5051275;28;20055;-82
2021/11/16 03:55:34;;;;;;;34.67;22.10;;;10.20;99.90;;;;;;5050061;28;20449;-82
2021/11/16 03:58:02;;;;;;;34.88;23.05;;;10.20;99.90;;;;;;5051368;28;20053;-82
2021/11/16 04:00:36;;;;;;;35.75;23.55;;;10.20;99.90;;;;;;5051134;28;20493;-82
2021/11/16 04:03:03;;;;;;;37.53;23.90;;;10.20;99.90;;;;;;5050768;28;20563;-82
2021/11/16 04:05:29;;;;;;;41.15;23.25;;;10.20;99.90;;;;;;5050973;28;20043;-83
2021/11/16 04:07:54;;;;;;;36.33;22.52;;;10.20;99.90;;;;;;5051028;28;20280;-82
2021/11/16 04:10:23;;;;;;;38.28;24.45;;;10.30;99.90;;;;;;5050934;28;20271;-82
2021/11/16 04:12:50;;;;;;;37.33;24.02;;;10.20;99.90;;;;;;5050787;28;20029;-82
2021/11/16 04:15:17;;;;;;;37.15;24.30;;;10.20;99.90;;;;;;5050711;28;20477;-82
2021/11/16 04:17:44;;;;;;;36.58;23.90;;;10.20;99.90;;;;;;5050281;28;20501;-83
2021/11/16 04:20:15;;;;;;;36.40;23.42;;;10.20;99.90;;;;;;5050570;28;20025;-82
2021/11/16 04:22:42;;;;;;;39.20;24.00;;;10.20;99.90;;;;;;5050883;28;20108;-82
2021/11/16 04:25:09;;;;;;;33.70;22.65;;;10.20;99.90;;;;;;5050685;28;20017;-82
2021/11/16 04:27:35;;;;;;;37.83;23.80;;;10.20;99.90;;;;;;5050543;28;20509;-83
2021/11/16 04:30:01;;;;;;;35.03;23.63;;;10.10;99.90;;;;;;5049192;28;20048;-82
2021/11/16 04:32:27;;;;;;;35.20;22.67;;;10.00;99.90;;;;;;5050002;28;20458;-82
2021/11/16 04:34:52;;;;;;;35.22;22.05;;;10.00;99.90;;;;;;5050238;28;20021;-83
2021/11/16 04:37:18;;;;;;;35.90;21.13;;;10.10;99.90;;;;;;5050562;28;20028;-82
2021/11/16 04:39:44;;;;;;;35.65;21.70;;;10.00;99.90;;;;;;5050326;28;20048;-82
2021/11/16 04:42:10;;;;;;;33.25;20.23;;;10.00;99.90;;;;;;5048781;28;20110;-82
2021/11/16 04:44:37;;;;;;;32.47;21.05;;;10.00;99.90;;;;;;5050018;28;20064;-82
2021/11/16 04:47:03;;;;;;;34.60;21.92;;;10.00;99.90;;;;;;5049899;28;20040;-82
2021/11/16 04:49:35;;;;;;;36.22;22.73;;;10.00;99.90;;;;;;5050123;28;20039;-82
2021/11/16 04:52:10;;;;;;;34.67;21.63;;;10.00;99.90;;;;;;5050213;28;20029;-82
2021/11/16 05:04:56;;;;;;;36.45;22.60;;;9.80;99.90;;;;;;5050598;28;20159;-82
2021/11/16 05:07:23;;;;;;;36.80;21.63;;;9.70;99.90;;;;;;5049747;28;20112;-82
2021/11/16 05:09:54;;;;;;;38.45;22.67;;;9.80;99.90;;;;;;5031793;28;20032;-82
2021/11/16 05:12:22;;;;;;;36.55;21.48;;;9.80;99.90;;;;;;5050150;28;20066;-83
2021/11/16 05:14:48;;;;;;;35.13;21.58;;;9.80;99.90;;;;;;5049771;28;20478;-83
2021/11/16 05:17:15;;;;;;;38.22;22.33;;;9.80;99.90;;;;;;5049225;28;20017;-82
2021/11/16 05:19:40;;;;;;;40.22;23.05;;;9.90;99.90;;;;;;5049844;28;20032;-82
2021/11/16 05:22:06;;;;;;;35.75;21.20;;;9.80;99.90;;;;;;5049693;28;20104;-82
2021/11/16 05:24:32;;;;;;;38.05;22.25;;;9.80;99.90;;;;;;5049846;28;20100;-82
2021/11/16 05:26:59;;;;;;;38.70;22.50;;;9.80;99.90;;;;;;5049730;28;20492;-82
2021/11/16 05:29:25;;;;;;;37.53;22.17;;;9.80;99.90;;;;;;5049823;28;20033;-83
2021/11/16 05:31:50;;;;;;;35.30;21.00;;;9.80;99.90;;;;;;5049339;28;20017;-82
2021/11/16 05:34:16;;;;;;;37.50;21.88;;;9.90;99.90;;;;;;5048170;28;20025;-82
2021/11/16 05:36:42;;;;;;;33.88;22.17;;;9.90;99.90;;;;;;5049736;28;20017;-82
2021/11/16 05:39:09;;;;;;;35.83;21.40;;;9.90;99.90;;;;;;5049711;28;20734;-82
2021/11/16 05:41:35;;;;;;;38.75;22.35;;;9.90;99.90;;;;;;5049696;28;20381;-82
2021/11/16 05:44:01;;;;;;;35.13;22.00;;;9.90;99.90;;;;;;5048444;28;20033;-82
2021/11/16 05:46:27;;;;;;;34.25;21.60;;;9.90;99.90;;;;;;5048896;28;20037;-82
2021/11/16 05:48:54;;;;;;;39.08;22.73;;;9.90;99.90;;;;;;5049481;28;20272;-82
2021/11/16 05:51:23;;;;;;;36.92;22.67;;;9.80;99.90;;;;;;5049793;28;20427;-82
2021/11/16 05:53:56;;;;;;;36.42;22.73;;;9.70;99.90;;;;;;5049730;28;20021;-82
2021/11/16 05:56:25;;;;;;;36.20;22.13;;;9.80;99.90;;;;;;5049779;28;20029;-82
2021/11/16 05:58:53;;;;;;;37.67;22.40;;;9.80;99.90;;;;;;5049389;28;20036;-82
2021/11/16 06:01:24;;;;;;;37.20;21.60;;;9.80;99.90;;;;;;5049190;28;20032;-82
2021/11/16 06:03:54;;;;;;;38.67;23.40;;;9.80;99.90;;;;;;5049471;28;20014;-82
2021/11/16 06:06:26;;;;;;;41.33;22.42;;;9.80;99.90;;;;;;5049565;28;20492;-82
2021/11/16 06:08:52;;;;;;;39.92;21.58;;;9.80;99.90;;;;;;5049298;28;20078;-83
2021/11/16 06:11:20;;;;;;;38.30;22.88;;;9.80;99.90;;;;;;5049427;28;20389;-82
2021/11/16 06:13:47;;;;;;;38.92;21.55;;;9.70;99.90;;;;;;5050931;28;20496;-82
2021/11/16 06:16:13;;;;;;;41.08;22.48;;;9.60;99.90;;;;;;5052753;28;20496;-82
2021/11/16 06:18:40;;;;;;;36.25;21.80;;;9.60;99.90;;;;;;5052569;28;20021;-82
2021/11/16 06:21:06;;;;;;;33.88;20.92;;;9.60;99.90;;;;;;5052071;28;20025;-83
2021/11/16 06:23:33;;;;;;;34.83;21.38;;;9.70;99.90;;;;;;5053370;28;20078;-82
2021/11/16 06:26:00;;;;;;;36.60;21.35;;;9.70;99.90;;;;;;5053455;28;20013;-82
2021/11/16 06:28:25;;;;;;;41.25;21.38;;;9.70;99.90;;;;;;5059549;28;20033;-82
2021/11/16 06:30:51;;;;;;;36.72;21.80;;;9.70;99.90;;;;;;5056170;28;20077;-83
2021/11/16 06:33:21;;;;;;;38.10;21.60;;;9.80;99.90;;;;;;5059006;28;20108;-82
2021/11/16 06:35:47;;;;;;;38.08;22.42;;;9.80;99.90;;;;;;5056599;28;20111;-82
2021/11/16 06:38:13;;;;;;;35.90;20.00;;;9.70;99.90;;;;;;5054013;28;20457;-82
2021/11/16 06:40:40;;;;;;;32.85;20.67;;;9.70;99.90;;;;;;5052727;28;20520;-82
2021/11/16 06:43:06;;;;;;;35.72;21.25;;;9.70;99.90;;;;;;5055744;28;20028;-82
2021/11/16 06:45:33;;;;;;;37.10;21.00;;;9.70;99.90;;;;;;5058625;28;20053;-82
2021/11/16 06:47:59;;;;;;;36.88;20.25;;;9.70;99.90;;;;;;5054593;28;20239;-82
2021/11/16 06:50:24;;;;;;;36.08;20.90;;;9.70;99.90;;;;;;5053018;28;20587;-83
2021/11/16 06:52:50;;;;;;;37.08;19.45;;;9.70;99.90;;;;;;5052389;28;20032;-83
2021/11/16 06:55:16;;;;;;;32.70;19.75;;;9.80;99.90;;;;;;5053885;28;20056;-82
2021/11/16 06:57:44;;;;;;;32.97;19.83;;;9.80;99.90;;;;;;5052165;28;20021;-82
2021/11/16 07:00:10;;;;;;;35.13;20.48;;;9.80;99.90;;;;;;5057151;28;20044;-82
2021/11/16 07:02:39;;;;;;;34.03;18.92;;;9.80;99.90;;;;;;5051801;28;20057;-82
2021/11/16 07:05:12;;;;;;;30.92;19.00;;;9.80;99.90;;;;;;5050786;28;20078;-82
2021/11/16 07:07:45;;;;;;;30.77;18.63;;;9.80;99.90;;;;;;5034188;28;20033;-85
2021/11/16 07:10:16;;;;;;;29.60;18.50;;;9.80;99.90;;;;;;5052501;28;20166;-85
2021/11/16 07:12:43;;;;;;;31.30;18.77;;;9.80;99.90;;;;;;5052080;28;20044;-86
2021/11/16 07:15:09;;;;;;;33.03;18.70;;;9.80;99.90;;;;;;5034068;28;20064;-86
2021/11/16 07:17:35;;;;;;;33.58;18.80;;;9.80;99.90;;;;;;5051551;28;20021;-86
2021/11/16 07:20:01;;;;;;;32.95;18.50;;;9.90;99.90;;;;;;5051821;28;20459;-86
2021/11/16 07:22:30;;;;;;;32.47;18.70;;;9.80;99.90;;;;;;5051754;28;20059;-86
2021/11/16 07:25:02;;;;;;;31.58;18.75;;;9.80;99.90;;;;;;5050901;28;20021;-86
2021/11/16 07:27:43;;;;;;;34.55;19.70;;;9.80;99.90;;;;;;5051582;28;20409;-86
2021/11/16 07:30:17;;;;;;;31.48;19.48;;;9.80;99.90;;;;;;5067190;28;20029;-86
2021/11/16 07:32:46;;;;;;;30.80;20.08;;;9.70;99.90;;;;;;5051374;28;20037;-86
2021/11/16 07:35:15;;;;;;;33.60;19.50;;;9.70;99.90;;;;;;5051448;28;20485;-86
2021/11/16 07:37:43;;;;;;;30.58;17.13;;;9.70;99.90;;;;;;5033604;28;20017;-86
2021/11/16 07:40:19;;;;;;;32.20;18.83;;;9.70;99.90;;;;;;5033526;28;20451;-87
2021/11/16 07:42:55;;;;;;;35.20;20.08;;;9.70;99.90;;;;;;5051466;28;20033;-86
2021/11/16 07:45:48;;;;;;;33.10;18.40;;;9.70;99.90;;;;;;5051394;28;20045;-86
2021/11/16 07:48:19;;;;;;;34.50;19.15;;;9.80;99.90;;;;;;5049244;28;20509;-86
2021/11/16 07:51:04;;;;;;;34.15;20.23;;;9.80;99.90;;;;;;5051239;28;20017;-86
2021/11/16 07:53:31;;;;;;;;;;;9.80;99.90;;;;;;5051651;28;20033;-87
2021/11/16 07:56:06;;;;;;;35.72;20.63;;;9.80;99.90;;;;;;5051118;28;19905;-86
2021/11/16 07:58:39;;;;;;;33.00;18.77;;;9.80;99.90;;;;;;5049690;28;20068;-87
2021/11/16 08:01:09;;;;;;;33.90;18.73;;;9.70;99.90;;;;;;5051306;28;20421;-87
2021/11/16 08:03:44;;;;;;;29.42;17.05;;;9.60;99.90;;;;;;5051288;28;20033;-87
2021/11/16 08:06:18;;;;;;;28.00;16.70;;;9.60;99.90;;;;;;5051590;28;20052;-90
2021/11/16 08:11:22;;;;;;;23.58;14.00;;;9.60;99.90;;;;;;5051803;28;20033;-87
2021/11/16 08:13:52;;;;;;;26.58;14.82;;;9.50;99.90;;;;;;5051358;28;20021;-87
2021/11/16 08:16:18;;;;;;;25.48;14.20;;;9.50;99.90;;;;;;5049109;28;20120;-87
2021/11/16 08:18:51;;;;;;;23.88;13.65;;;9.40;99.90;;;;;;5050783;28;20296;-87
2021/11/16 08:21:17;;;;;;;23.85;13.65;;;9.50;99.90;;;;;;5032876;28;20060;-87
2021/11/16 08:24:07;;;;;;;23.70;13.25;;;9.50;99.90;;;;;;5050856;28;20029;-87
2021/11/16 08:26:45;;;;;;;24.60;13.23;;;9.50;99.90;;;;;;5050651;28;20060;-86
2021/11/16 08:29:13;;;;;;;21.98;13.70;;;9.60;99.90;;;;;;5050470;28;20138;-87
2021/11/16 08:31:49;;;;;;;26.13;13.85;;;9.60;99.90;;;;;;5048958;28;20021;-87
2021/11/16 08:34:16;;;;;;;24.63;13.00;;;9.60;99.90;;;;;;5050495;28;20025;-88
2021/11/16 08:36:47;;;;;;;27.58;14.35;;;9.60;99.90;;;;;;5050436;28;20099;-87
2021/11/16 08:39:15;;;;;;;26.13;14.25;;;9.60;99.90;;;;;;5050495;28;20066;-87
2021/11/16 08:41:40;;;;;;;29.50;15.50;;;9.70;99.90;;;;;;5050796;28;20469;-87
2021/11/16 08:44:21;;;;;;;32.30;18.20;;;9.70;99.90;;;;;;5049109;28;20082;-88
2021/11/16 08:46:49;;;;;;;26.63;15.48;;;9.70;99.90;;;;;;5049837;28;20059;-87
2021/11/16 08:49:28;;;;;;;25.83;14.70;;;9.70;99.90;;;;;;5050075;28;20078;-87
2021/11/16 08:51:57;;;;;;;33.15;18.80;;;9.60;99.90;;;;;;5050256;28;20045;-87
2021/11/16 08:54:29;;;;;;;26.33;14.32;;;9.70;99.90;;;;;;5050156;28;20513;-87
2021/11/16 08:56:56;;;;;;;23.77;14.00;;;9.50;99.90;;;;;;5050383;28;20070;-87
2021/11/16 08:59:22;;;;;;;26.48;13.77;;;9.50;99.90;;;;;;5050244;28;20020;-87
2021/11/16 09:02:04;;;;;;;25.25;14.07;;;9.50;99.90;;;;;;5048398;28;20443;-87
2021/11/16 09:04:33;;;;;;;24.98;13.85;;;9.40;99.90;;;;;;5050022;28;20025;-88
2021/11/16 09:07:00;;;;;;;29.38;16.02;;;9.30;99.90;;;;;;5049776;28;20021;-87
2021/11/16 09:09:27;;;;;;;24.65;13.85;;;9.30;99.90;;;;;;5065519;28;20402;-87
2021/11/16 09:12:00;;;;;;;24.33;14.40;;;9.40;99.90;;;;;;5050162;28;20179;-87
2021/11/16 09:14:27;;;;;;;25.20;13.88;;;9.50;99.90;;;;;;5050041;28;20024;-87
2021/11/16 09:16:53;;;;;;;23.70;14.00;;;9.70;99.90;;;;;;5050648;28;20044;-88
2021/11/16 09:19:33;;;;;;;23.85;14.10;;;9.70;99.90;;;;;;5050562;28;20040;-87
2021/11/16 09:22:02;;;;;;;25.58;14.10;;;9.80;99.90;;;;;;5050764;28;20025;-87
2021/11/16 09:24:34;;;;;;;22.17;12.73;;;10.00;99.90;;;;;;5050803;28;20045;-87
2021/11/16 09:29:34;;;;;;;25.88;15.25;;;9.90;99.90;;;;;;5050501;28;20041;-91
2021/11/16 09:32:04;;;;;;;21.90;13.52;;;9.90;99.90;;;;;;5049845;28;20048;-87
2021/11/16 09:34:33;;;;;;;21.27;13.80;;;10.00;99.90;;;;;;5049980;28;20029;-87
2021/11/16 09:37:13;;;;;;;23.67;13.05;;;10.10;99.90;;;;;;5049979;28;20025;-87
2021/11/16 09:39:44;;;;;;;23.02;12.95;;;10.10;99.90;;;;;;5049665;28;20028;-88
2021/11/16 09:42:13;;;;;;;28.08;15.55;;;10.10;99.90;;;;;;5049618;28;20497;-88
2021/11/16 09:44:45;;;;;;;24.77;13.82;;;9.90;99.90;;;;;;5049776;28;20501;-87
2021/11/16 09:47:17;;;;;;;20.67;12.80;;;9.90;99.90;;;;;;5050133;28;20017;-87
2021/11/16 09:49:55;;;;;;;23.15;13.70;;;10.00;99.90;;;;;;5054217;28;20078;-87
2021/11/16 09:52:38;;;;;;;31.38;15.93;;;10.00;99.90;;;;;;5054570;28;20025;-87
2021/11/16 09:55:21;;;;;;;38.42;18.25;;;10.10;99.90;;;;;;5053418;28;20029;-87
2021/11/16 09:57:52;;;;;;;32.50;16.15;;;10.20;99.90;;;;;;5054309;28;20032;-87
2021/11/16 10:00:24;;;;;;;36.70;17.23;;;10.30;99.90;;;;;;5036403;28;20264;-88
2021/11/16 10:02:51;;;;;;;28.48;15.55;;;10.20;99.90;;;;;;5056149;28;20075;-88
2021/11/16 10:05:23;;;;;;;21.98;12.93;;;10.20;99.90;;;;;;5053814;28;20096;-87
2021/11/16 10:07:54;;;;;;;39.17;20.10;;;10.20;99.90;;;;;;5035302;28;20461;-88
2021/11/16 10:10:22;;;;;;;43.30;20.73;;;10.30;99.90;;;;;;5053403;28;20437;-88
2021/11/16 10:12:52;;;;;;;49.53;21.50;;;10.30;99.90;;;;;;5053271;28;20115;-87
2021/11/16 10:15:21;;;;;;;25.60;14.00;;;10.30;99.90;;;;;;5053087;28;20029;-89
2021/11/16 10:17:49;;;;;;;17.50;11.52;;;10.40;99.90;;;;;;5053198;28;20013;-87
2021/11/16 10:20:18;;;;;;;15.10;10.63;;;10.40;99.90;;;;;;5053233;28;20020;-88
2021/11/16 10:22:49;;;;;;;17.63;10.88;;;10.30;99.90;;;;;;5053271;28;20036;-88
2021/11/16 10:25:23;;;;;;;16.88;11.93;;;10.30;99.90;;;;;;5053141;28;20021;-88
2021/11/16 10:27:53;;;;;;;17.00;10.77;;;10.40;99.90;;;;;;5052911;28;20028;-87
2021/11/16 10:30:24;;;;;;;13.48;9.48;;;10.40;99.90;;;;;;5035022;28;20021;-87
2021/11/16 10:33:12;;;;;;;14.18;9.38;;;10.40;99.90;;;;;;5052919;28;20023;-87
2021/11/16 10:35:50;;;;;;;14.43;9.23;;;10.20;99.90;;;;;;5052818;28;20052;-93
2021/11/16 10:38:19;;;;;;;14.93;9.48;;;10.20;99.90;;;;;;5034975;28;20044;-88
2021/11/16 10:40:46;;;;;;;11.43;8.15;;;10.20;99.90;;;;;;5052998;28;20032;-87
2021/11/16 10:43:12;;;;;;;11.40;9.23;;;10.20;99.90;;;;;;5053039;28;20117;-87
2021/11/16 10:45:43;;;;;;;16.42;10.25;;;10.20;99.90;;;;;;5052558;28;20049;-87
2021/11/16 10:48:11;;;;;;;13.30;9.20;;;10.30;99.90;;;;;;5053444;28;20025;-87
2021/11/16 10:50:39;;;;;;;13.30;9.02;;;10.30;99.90;;;;;;5054057;28;20025;-87
2021/11/16 10:53:31;;;;;;;13.55;9.57;;;10.30;99.90;;;;;;5052667;28;20021;-87
2021/11/16 10:56:00;;;;;;;13.48;9.30;;;10.20;99.90;;;;;;5052768;28;20025;-87
2021/11/16 10:58:32;;;;;;;14.25;9.52;;;10.10;99.90;;;;;;5052840;28;20103;-87
2021/11/16 11:01:04;;;;;;;13.38;10.25;;;10.10;99.90;;;;;;5050985;28;20029;-88
2021/11/16 11:03:40;;;;;;;15.25;10.70;;;10.10;99.90;;;;;;5052459;28;20048;-87
2021/11/16 11:06:09;;;;;;;16.10;11.85;;;10.10;99.90;;;;;;5052383;28;20020;-88
2021/11/16 11:08:39;;;;;;;16.13;11.45;;;10.00;99.90;;;;;;5052129;28;20493;-87
2021/11/16 11:11:27;;;;;;;17.20;11.50;;;10.00;99.90;;;;;;5052303;28;20040;-87
2021/11/16 11:13:59;;;;;;;14.38;10.73;;;10.00;99.90;;;;;;5051694;28;20044;-87
2021/11/16 11:16:26;;;;;;;14.82;11.07;;;10.10;99.90;;;;;;5051824;28;20096;-88
2021/11/16 11:18:53;;;;;;;12.32;9.82;;;10.10;99.90;;;;;;5034124;28;20119;-88
2021/11/16 11:21:24;;;;;;;15.02;11.02;;;10.10;99.90;;;;;;5049647;28;20024;-88
2021/11/16 11:23:54;;;;;;;17.15;12.40;;;10.10;99.90;;;;;;5053962;28;20024;-88
2021/11/16 11:26:33;;;;;;;21.95;14.63;;;10.20;99.90;;;;;;5071949;28;20517;-88
2021/11/16 11:32:16;;;;;;;20.38;13.55;;;10.30;99.90;;;;;;5059014;28;20037;-89
2021/11/16 11:34:49;;;;;;;18.63;13.05;;;10.40;99.90;;;;;;5048867;28;20123;-88
2021/11/16 11:37:24;;;;;;;14.32;11.07;;;10.40;99.90;;;;;;5052519;28;20025;-88
2021/11/16 11:40:15;;;;;;;13.40;10.77;;;10.30;99.90;;;;;;5067503;28;20469;-88
2021/11/16 11:42:44;;;;;;;12.07;9.25;;;10.30;99.90;;;;;;5051970;28;20318;-93
2021/11/16 11:45:24;;;;;;;15.05;10.93;;;10.30;99.90;;;;;;5051800;28;20119;-88
2021/11/16 11:47:52;;;;;;;16.05;11.18;;;10.30;99.90;;;;;;5031997;28;20033;-89
2021/11/16 11:50:22;;;;;;;14.10;11.18;;;10.20;99.90;;;;;;5016458;28;20438;-90
2021/11/16 11:52:49;;;;;;;17.98;11.32;;;10.30;99.90;;;;;;5035640;28;20075;-88
2021/11/16 11:55:15;;;;;;;15.70;11.15;;;10.30;99.90;;;;;;5033575;28;20023;-88
2021/11/16 11:57:41;;;;;;;13.48;10.25;;;10.30;99.90;;;;;;5032470;28;20123;-88
2021/11/16 12:00:08;;;;;;;16.45;11.52;;;10.40;99.90;;;;;;5032722;28;20021;-88
2021/11/16 12:02:34;;;;;;;14.65;11.90;;;10.30;99.90;;;;;;5014913;28;20024;-88
2021/11/16 12:05:00;;;;;;;16.55;12.73;;;10.20;99.90;;;;;;5033042;28;20679;-88
2021/11/16 12:07:29;;;;;;;18.17;13.73;;;10.20;99.90;;;;;;5032416;28;20261;-88
2021/11/16 12:09:56;;;;;;;18.25;12.25;;;10.20;99.90;;;;;;5014523;28;20636;-88
2021/11/16 12:12:23;;;;;;;40.50;26.90;;;10.20;99.90;;;;;;5013985;28;20411;-88
2021/11/16 12:15:06;;;;;;;20.92;15.73;;;10.20;99.90;;;;;;5014780;28;20260;-88
2021/11/16 12:17:39;;;;;;;26.98;17.63;;;10.20;99.90;;;;;;5031433;28;20053;-88
2021/11/16 12:20:06;;;;;;;25.48;18.58;;;10.20;99.90;;;;;;5013459;28;20029;-88
2021/11/16 12:22:32;;;;;;;25.75;18.10;;;10.20;99.90;;;;;;5031699;28;20022;-88
2021/11/16 12:25:17;;;;;;;25.50;17.23;;;10.10;99.90;;;;;;5031366;28;20022;-88
2021/11/16 12:27:43;;;;;;;32.30;22.90;;;10.10;99.90;;;;;;5031332;28;20052;-88
2021/11/16 12:30:10;;;;;;;31.42;21.23;;;10.10;99.90;;;;;;5031156;28;20025;-90
2021/11/16 12:32:45;;;;;;;26.58;20.15;;;9.90;99.90;;;;;;5013578;28;20392;-88
2021/11/16 12:35:12;;;;;;;31.20;21.10;;;9.90;99.90;;;;;;5013941;28;20025;-88
2021/11/16 12:37:47;;;;;;;21.08;16.08;;;10.00;99.90;;;;;;5031638;28;20029;-89
2021/11/16 12:40:24;;;;;;;28.02;18.55;;;10.10;99.90;;;;;;5031535;28;20021;-88
2021/11/16 12:43:18;;;;;;;31.58;19.73;;;10.00;99.90;;;;;;5031164;28;20437;-91
2021/11/16 12:45:48;;;;;;;30.13;18.38;;;10.10;99.90;;;;;;5014154;28;20422;-88
2021/11/16 12:48:17;;;;;;;34.15;23.02;;;10.10;99.90;;;;;;5031615;28;20032;-88
2021/11/16 12:51:12;;;;;;;24.38;18.10;;;10.10;99.90;;;;;;5032432;28;20395;-89
2021/11/16 12:53:49;;;;;;;26.98;18.35;;;10.10;99.90;;;;;;5031654;28;20037;-88
2021/11/16 12:56:15;;;;;;;23.10;17.58;;;10.20;99.90;;;;;;5031217;28;20175;-88
2021/11/16 12:58:58;;;;;;;25.35;18.38;;;10.10;99.90;;;;;;5031481;28;20044;-88
2021/11/16 13:01:56;;;;;;;25.58;18.40;;;10.10;99.90;;;;;;5030869;28;20365;-92
2021/11/16 13:04:46;;;;;;;17.70;13.93;;;10.10;99.90;;;;;;5030494;28;20021;-88
2021/11/16 13:07:34;;;;;;;30.75;18.70;;;9.90;99.90;;;;;;5012749;28;20173;-90